Flight Track Log - Related Links

Times and Time Zones

All times are in EDT time to prevent confusion due to time zone crossing. See the RPA3453 flight status page for this flight to view local times or setup timezone preferences in your user account.

Time Position Orientation Groundspeed Altitude Reporting Facility
EDT Latitude Longitude Course Direction KTS MPH feet Rate Location/Type
11:29AM 39.8667 -75.2833 57° Northeast 148 170 900  Level Philadelphia TRACON
11:29AM 39.8333 -75.3000 201° Southwest 162 186 1,800 1,688 Climbing Philadelphia TRACON
11:30AM 39.7833 -75.3167 194° South 263 303 3,600 2,238 Climbing Philadelphia TRACON
11:31AM 39.8096 -74.8311 105° East  Level FlightAware Approximate
11:31AM 39.7667 -75.2000 100° East 296 341 6,500  Level Philadelphia TRACON
11:32AM 39.7842 -74.6958 75° East  Level FlightAware Approximate
11:32AM 39.7833 -75.1000 78° East 324 373 9,000  Level Philadelphia TRACON
11:33AM 39.8000 -74.5586 90° East  Level FlightAware Approximate
11:34AM 39.8131 -74.4238 57° Northeast  Level FlightAware Approximate
11:34AM 39.7839 -74.9256 90° East 352 405 12,000  Level New York Center
11:35AM 39.8089 -74.8081 74° East 341 392 12,900 1,714 Climbing New York Center
11:36AM 39.8603 -74.7111 55° Northeast 328 377 15,400 2,361 Climbing New York Center
11:37AM 39.9158 -74.6058 55° Northeast 334 384 17,700 2,269 Climbing New York Center
11:38AM 39.9803 -74.4822 56° Northeast 358 412 19,900 2,186 Climbing New York Center
11:39AM 40.0375 -74.3794 54° Northeast 373 429 22,000 1,537 Climbing New York Center
11:40AM 40.1114 -74.2828 45° Northeast 373 429 23,000 496 Climbing New York Center
11:41AM 40.1953 -74.1947 39° Northeast 373 429 23,000  Level New York Center
11:42AM 40.2747 -74.1089 39° Northeast 373 429 23,000  Level New York Center
11:43AM 40.3567 -74.0175 40° Northeast 373 429 23,000  Level New York Center
11:44AM 40.4361 -73.9286 40° Northeast 373 429 23,000  Level New York Center
11:46AM 40.6375 -73.7086 40° Northeast 380 437 23,000  Level Boston Center
11:47AM 40.7097 -73.6300 40° Northeast 380 437 23,000  Level Boston Center
11:48AM 40.7992 -73.5308 40° Northeast 377 434 23,000  Level Boston Center
11:49AM 40.8800 -73.4408 40° Northeast 377 434 23,000  Level Boston Center
11:50AM 40.9597 -73.3500 41° Northeast 377 434 23,000  Level Boston Center
11:51AM 41.0492 -73.2506 40° Northeast 379 436 23,000  Level Boston Center
11:52AM 41.1294 -73.1603 40° Northeast 379 436 23,000  Level Boston Center
11:53AM 41.1953 -73.0506 51° Northeast 382 440 23,000  Level Boston Center
11:54AM 41.2522 -72.9314 58° Northeast 382 440 23,000  Level Boston Center
11:55AM 41.3033 -72.8186 59° Northeast 382 440 23,000  Level Boston Center
11:56AM 41.3606 -72.6983 58° Northeast 382 440 23,000  Level Boston Center
11:57AM 41.4278 -72.5528 58° Northeast 382 440 23,000  Level Boston Center
11:58AM 41.4853 -72.4286 58° Northeast 389 448 23,000  Level Boston Center
11:59AM 41.5419 -72.3053 58° Northeast 386 444 23,000  Level Boston Center
12:00PM 41.5967 -72.1856 59° Northeast 383 441 23,000  Level Boston Center
12:01PM 41.6517 -72.0664 58° Northeast 383 441 23,000  Level Boston Center
12:03PM 41.7061 -71.9475 58° Northeast 381 438 23,000  Level Boston Center
12:04PM 41.7714 -71.8394 51° Northeast 378 435 23,000  Level Boston Center
12:05PM 41.8381 -71.7347 49° Northeast 376 433 23,000  Level Boston Center
12:06PM 41.9039 -71.6303 50° Northeast 372 428 23,000  Level Boston Center
12:07PM 41.9694 -71.5256 50° Northeast 370 426 23,000  Level Boston Center
12:08PM 42.0481 -71.3989 50° Northeast 370 426 23,000  Level Boston Center
12:09PM 42.1144 -71.2936 50° Northeast 370 426 23,000  Level Boston Center
12:10PM 42.1828 -71.1831 50° Northeast 371 427 23,000  Level Boston Center
12:11PM 42.2497 -71.0753 50° Northeast 373 429 23,000  Level Boston Center
12:12PM 42.3153 -70.9669 51° Northeast 372 428 23,000  Level Boston Center
12:13PM 42.3817 -70.8592 50° Northeast 372 428 23,000  Level Boston Center
12:14PM 42.4497 -70.7642 46° Northeast 372 428 23,000 -49 Level Boston Center
12:15PM 42.5486 -70.7114 21° North 382 440 22,900 -787 Descending Boston Center
12:16PM 42.6519 -70.6553 22° Northeast 376 433 21,400 -1,475 Descending Boston Center
12:17PM 42.7411 -70.6003 24° Northeast 355 409 19,900 -1,854 Descending Boston Center
12:18PM 42.8447 -70.5353 25° Northeast 350 403 17,600 -1,951 Descending Boston Center
12:19PM 42.9294 -70.4817 25° Northeast 342 394 15,900 -1,721 Descending Boston Center
12:20PM 43.0119 -70.4294 25° Northeast 333 383 14,100 -1,770 Descending Boston Center
12:21PM 43.0928 -70.3619 31° Northeast 322 371 12,300 -1,512 Descending Boston Center
12:22PM 43.1656 -70.2972 33° Northeast 308 354 11,000 -1,122 Descending Boston Center
12:23PM 43.2358 -70.2358 32° Northeast 302 348 10,000 -1,180 Descending Boston Center
12:24PM 43.3056 -70.1753 32° Northeast 299 344 8,600 -1,377 Descending Boston Center
12:25PM 43.3814 -70.1328 22° Northeast 295 339 7,200 -1,426 Descending Boston Center
12:26PM 43.4631 -70.0950 19° North 291 335 5,700 -1,426 Descending Boston Center
12:27PM 43.5389 -70.0594 19° North 290 334 4,300 -1,279 Descending Boston Center
12:28PM 43.6119 -70.0567 North 261 300 3,100 -885 Descending Boston Center
12:29PM 43.6342 -70.1322 292° West 216 249 2,500 -878 Descending Boston Center
12:30PM 43.6378 -70.2108 274° West 195 224 1,300 -976 Descending Boston Center
12:31PM 43.6414 -70.2672 275° West 154 177 500 -590 Descending Boston Center
12:32PM 43.6447 -70.3125 276° West 152 175 100 -393 Descending Boston Center

Login

Don't have an account? Register now (free) for customized features, flight alerts, and more!